createdAt,value
2018-03-18T00:01:36.677Z,99391.52
2018-03-18T00:04:03.001Z,99393.21
2018-03-18T00:06:29.347Z,99393.88
2018-03-18T00:08:55.651Z,99412.31
2018-03-18T00:11:22.840Z,99401.33
2018-03-18T00:13:49.193Z,99398.34
2018-03-18T00:16:15.487Z,99413.91
2018-03-18T00:18:41.804Z,99415.20
2018-03-18T00:21:08.126Z,99418.45
2018-03-18T00:23:35.207Z,99409.95
2018-03-18T00:26:02.524Z,99409.23
2018-03-18T00:28:29.594Z,99408.75
2018-03-18T00:30:55.935Z,99421.30
2018-03-18T00:33:22.259Z,99415.78
2018-03-18T00:35:49.075Z,99420.81
2018-03-18T00:38:16.189Z,99408.04
2018-03-18T00:40:42.507Z,99416.64
2018-03-18T00:43:08.790Z,99413.83
2018-03-18T00:45:35.833Z,99413.66
2018-03-18T00:48:02.168Z,99407.23
2018-03-18T00:50:28.496Z,99418.19
2018-03-18T00:52:55.589Z,99407.30
2018-03-18T00:55:22.085Z,99416.60
2018-03-18T00:57:49.142Z,99421.03
2018-03-18T01:00:15.497Z,99409.97
2018-03-18T01:02:41.780Z,99409.59
2018-03-18T01:05:08.093Z,99416.42
2018-03-18T01:07:34.397Z,99402.17
2018-03-18T01:10:00.719Z,99417.45
2018-03-18T01:12:27.019Z,99421.09
2018-03-18T01:14:54.019Z,99411.58
2018-03-18T01:17:20.326Z,99400.51
2018-03-18T01:19:46.631Z,99409.67
2018-03-18T01:22:13.645Z,99407.90
2018-03-18T01:24:40.012Z,99395.92
2018-03-18T01:27:06.296Z,99413.52
2018-03-18T01:29:33.527Z,99416.42
2018-03-18T01:31:59.854Z,99411.77
2018-03-18T01:34:26.164Z,99415.64
2018-03-18T01:36:52.484Z,99396.23
2018-03-18T01:39:19.509Z,99410.23
2018-03-18T01:41:45.840Z,99401.88
2018-03-18T01:44:12.112Z,99414.28
2018-03-18T01:46:38.384Z,99397.16
2018-03-18T01:49:04.674Z,99405.59
2018-03-18T01:51:31.497Z,99403.90
2018-03-18T01:53:58.623Z,99400.11
2018-03-18T01:56:24.943Z,99399.52
2018-03-18T01:58:51.240Z,99398.50
2018-03-18T02:01:17.533Z,99402.06
2018-03-18T02:03:44.581Z,99399.91
2018-03-18T02:06:11.591Z,99392.58
2018-03-18T02:08:37.853Z,99397.89
2018-03-18T02:11:04.930Z,99414.80
2018-03-18T02:13:31.227Z,99392.56
2018-03-18T02:15:57.515Z,99395.09
2018-03-18T02:18:23.815Z,99396.63
2018-03-18T02:20:50.126Z,99401.92
2018-03-18T02:23:17.164Z,99399.99
2018-03-18T02:25:44.942Z,99408.83
2018-03-18T02:28:12.046Z,99403.79
2018-03-18T02:30:39.104Z,99402.95
2018-03-18T02:33:05.409Z,99405.22
2018-03-18T02:35:31.745Z,99409.56
2018-03-18T02:37:58.098Z,99399.22
2018-03-18T02:40:24.406Z,99408.72
2018-03-18T02:42:50.769Z,99388.85
2018-03-18T02:45:17.071Z,99405.02
2018-03-18T02:47:43.399Z,99396.52
2018-03-18T02:50:09.683Z,99386.25
2018-03-18T02:52:36.729Z,99385.36
2018-03-18T02:55:03.765Z,99396.91
2018-03-18T02:57:30.106Z,99404.16
2018-03-18T02:59:57.148Z,99406.08
2018-03-18T03:02:23.455Z,99403.08
2018-03-18T03:04:49.764Z,99400.83
2018-03-18T03:07:16.062Z,99400.34
2018-03-18T03:09:43.116Z,99401.08
2018-03-18T03:12:09.451Z,99406.72
2018-03-18T03:14:35.749Z,99399.58
2018-03-18T03:17:02.047Z,99402.66
2018-03-18T03:19:28.366Z,99407.70
2018-03-18T03:21:54.686Z,99404.64
2018-03-18T03:24:20.988Z,99408.58
2018-03-18T03:26:48.063Z,99402.53
2018-03-18T03:29:14.328Z,99397.16
2018-03-18T03:31:40.608Z,99406.84
2018-03-18T03:34:06.927Z,99423.19
2018-03-18T03:36:33.955Z,99414.34
2018-03-18T03:39:00.284Z,99415.52
2018-03-18T03:41:26.564Z,99421.89
2018-03-18T03:43:53.590Z,99424.23
2018-03-18T03:46:20.646Z,99415.31
2018-03-18T03:48:46.977Z,99412.80
2018-03-18T03:51:13.299Z,99428.56
2018-03-18T03:53:40.364Z,99414.34
2018-03-18T03:56:06.706Z,99431.36
2018-03-18T03:58:33.049Z,99429.17
2018-03-18T04:00:59.336Z,99438.00
2018-03-18T04:03:26.385Z,99437.76
2018-03-18T04:05:53.419Z,99438.03
2018-03-18T04:08:19.675Z,99436.64
2018-03-18T04:10:45.999Z,99432.75
2018-03-18T04:13:13.080Z,99438.13
2018-03-18T04:15:39.453Z,99438.39
2018-03-18T04:18:05.676Z,99421.92
2018-03-18T04:20:32.011Z,99434.42
2018-03-18T04:22:58.406Z,99452.08
2018-03-18T04:25:24.732Z,99443.19
2018-03-18T04:27:51.031Z,99444.52
2018-03-18T04:30:18.071Z,99445.96
2018-03-18T04:32:45.072Z,99446.70
2018-03-18T04:35:11.382Z,99453.67
2018-03-18T04:37:37.691Z,99454.76
2018-03-18T04:40:04.729Z,99449.38
2018-03-18T04:42:31.745Z,99445.10
2018-03-18T04:44:58.116Z,99456.38
2018-03-18T04:47:25.219Z,99443.16
2018-03-18T04:49:51.525Z,99446.76
2018-03-18T04:52:17.821Z,99446.28
2018-03-18T04:54:44.831Z,99454.91
2018-03-18T04:57:11.101Z,99462.49
2018-03-18T04:59:44.970Z,99465.72
2018-03-18T05:02:11.339Z,99453.90
2018-03-18T05:04:38.389Z,99464.36
2018-03-18T05:07:05.424Z,99469.24
2018-03-18T05:09:32.459Z,99469.08
2018-03-18T05:11:59.668Z,99473.81
2018-03-18T05:14:26.020Z,99466.53
2018-03-18T05:16:52.289Z,99476.59
2018-03-18T05:19:19.375Z,99478.70
2018-03-18T05:21:45.703Z,99482.16
2018-03-18T05:24:12.003Z,99486.08
2018-03-18T05:26:39.122Z,99471.22
2018-03-18T05:29:05.423Z,99479.65
2018-03-18T05:31:31.806Z,99478.86
2018-03-18T05:33:58.862Z,99492.92
2018-03-18T05:36:25.886Z,99484.16
2018-03-18T05:38:52.200Z,99489.23
2018-03-18T05:41:18.566Z,99490.87
2018-03-18T05:43:45.724Z,99481.17
2018-03-18T05:46:12.803Z,99504.61
2018-03-18T05:48:39.621Z,99485.00
2018-03-18T05:51:06.656Z,99497.13
2018-03-18T05:53:33.673Z,99504.19
2018-03-18T05:56:00.032Z,99501.33
2018-03-18T05:58:26.374Z,99504.54
2018-03-18T06:00:53.374Z,99512.55
2018-03-18T06:03:19.650Z,99507.83
2018-03-18T06:05:46.740Z,99507.77
2018-03-18T06:08:13.021Z,99515.88
2018-03-18T06:10:40.052Z,99518.40
2018-03-18T06:13:07.342Z,99527.34
2018-03-18T06:15:33.738Z,99512.56
2018-03-18T06:18:00.102Z,99519.07
2018-03-18T06:20:26.466Z,99521.34
2018-03-18T06:22:52.784Z,99532.39
2018-03-18T06:25:19.060Z,99533.19
2018-03-18T06:27:45.365Z,99537.70
2018-03-18T06:30:11.671Z,99516.70
2018-03-18T06:32:37.934Z,99544.98
2018-03-18T06:35:04.247Z,99549.91
2018-03-18T06:37:30.566Z,99542.55
2018-03-18T06:39:56.875Z,99544.84
2018-03-18T06:42:23.935Z,99547.67
2018-03-18T06:44:50.235Z,99553.24
2018-03-18T06:47:17.276Z,99557.73
2018-03-18T06:49:45.059Z,99558.95
2018-03-18T06:52:12.159Z,99560.67
2018-03-18T06:54:38.480Z,99559.08
2018-03-18T06:57:04.776Z,99572.48
2018-03-18T06:59:31.832Z,99561.53
2018-03-18T07:01:58.104Z,99573.73
2018-03-18T07:04:24.388Z,99567.14
2018-03-18T07:06:51.462Z,99574.20
2018-03-18T07:09:17.725Z,99585.99
2018-03-18T07:11:44.041Z,99584.38
2018-03-18T07:14:10.404Z,99575.06
2018-03-18T07:16:36.766Z,99571.69
2018-03-18T07:19:03.878Z,99572.34
2018-03-18T07:21:30.190Z,99577.27
2018-03-18T07:23:56.511Z,99584.19
2018-03-18T07:26:22.878Z,99580.48
2018-03-18T07:28:49.263Z,99580.25
2018-03-18T07:31:15.701Z,99601.48
2018-03-18T07:33:42.023Z,99585.31
2018-03-18T07:36:08.299Z,99595.16
2018-03-18T07:38:35.444Z,99593.55
2018-03-18T07:41:01.763Z,99593.23
2018-03-18T07:43:28.068Z,99591.22
2018-03-18T07:45:54.430Z,99599.70
2018-03-18T07:48:20.730Z,99600.62
2018-03-18T07:50:47.093Z,99600.11
2018-03-18T07:53:13.398Z,99599.80
2018-03-18T07:55:39.714Z,99605.80
2018-03-18T07:58:06.008Z,99605.23
2018-03-18T08:00:33.052Z,99607.45
2018-03-18T08:02:59.328Z,99605.81
2018-03-18T08:05:25.648Z,99606.20
2018-03-18T08:07:51.942Z,99616.45
2018-03-18T08:10:18.243Z,99610.94
2018-03-18T08:12:44.957Z,99602.97
2018-03-18T08:15:11.285Z,99611.64
2018-03-18T08:17:37.629Z,99614.72
2018-03-18T08:20:03.970Z,99617.38
2018-03-18T08:22:30.304Z,99603.05
2018-03-18T08:24:56.623Z,99608.24
2018-03-18T08:27:22.967Z,99594.42
2018-03-18T08:29:49.384Z,99609.66
2018-03-18T08:32:15.703Z,99619.45
2018-03-18T08:34:42.171Z,99623.89
2018-03-18T08:37:08.611Z,99604.17
2018-03-18T08:39:34.983Z,99612.93
2018-03-18T08:42:02.191Z,99615.40
2018-03-18T08:44:28.504Z,99621.23
2018-03-18T08:46:54.812Z,99619.08
2018-03-18T08:49:21.138Z,99618.73
2018-03-18T08:51:47.548Z,99620.63
2018-03-18T08:54:14.967Z,99615.48
2018-03-18T08:56:41.321Z,99616.98
2018-03-18T08:59:07.702Z,99628.56
2018-03-18T09:01:34.105Z,99626.90
2018-03-18T09:04:00.462Z,99629.16
2018-03-18T09:06:26.841Z,99628.39
2018-03-18T09:08:53.975Z,99626.55
2018-03-18T09:11:20.269Z,99627.09
2018-03-18T09:13:46.571Z,99625.61
2018-03-18T09:16:12.937Z,99620.83
2018-03-18T09:18:39.268Z,99631.87
2018-03-18T09:21:05.638Z,99629.30
2018-03-18T09:23:33.406Z,99624.23
2018-03-18T09:26:00.640Z,99629.22
2018-03-18T09:28:26.972Z,99626.87
2018-03-18T09:30:53.367Z,99635.96
2018-03-18T09:33:20.446Z,99626.56
2018-03-18T09:35:46.756Z,99633.68
2018-03-18T09:38:13.828Z,99630.44
2018-03-18T09:40:40.183Z,99627.94
2018-03-18T09:43:06.789Z,99625.00
2018-03-18T09:45:33.115Z,99626.34
2018-03-18T09:47:59.455Z,99630.61
2018-03-18T09:50:25.804Z,99625.59
2018-03-18T09:52:52.229Z,99633.25
2018-03-18T09:55:18.623Z,99618.89
2018-03-18T09:57:45.673Z,99625.58
2018-03-18T10:00:12.808Z,99629.80
2018-03-18T10:02:39.870Z,99624.48
2018-03-18T10:05:07.937Z,99626.84
2018-03-18T10:07:35.006Z,99628.41
2018-03-18T10:10:01.400Z,99627.41
2018-03-18T10:12:27.686Z,99612.13
2018-03-18T10:14:53.961Z,99623.85
2018-03-18T10:17:20.259Z,99631.50
2018-03-18T10:19:46.595Z,99621.83
2018-03-18T10:22:12.893Z,99630.89
2018-03-18T10:24:39.328Z,99621.70
2018-03-18T10:27:05.715Z,99619.22
2018-03-18T10:29:32.094Z,99612.63
2018-03-18T10:31:59.211Z,99614.69
2018-03-18T10:34:25.508Z,99621.41
2018-03-18T10:36:51.804Z,99604.87
2018-03-18T10:39:18.148Z,99613.11
2018-03-18T10:41:44.469Z,99612.40
2018-03-18T10:44:10.928Z,99613.12
2018-03-18T10:46:37.252Z,99599.59
2018-03-18T10:49:03.644Z,99618.34
2018-03-18T10:51:30.789Z,99591.36
2018-03-18T10:53:57.870Z,99615.82
2018-03-18T10:56:24.334Z,99620.02
2018-03-18T10:58:50.653Z,99616.36
2018-03-18T11:01:23.024Z,99613.03
2018-03-18T11:03:55.652Z,99601.84
2018-03-18T11:06:22.022Z,99612.48
2018-03-18T11:08:48.481Z,99624.42
2018-03-18T11:11:14.755Z,99611.58
2018-03-18T11:13:41.831Z,99625.68
2018-03-18T11:16:08.210Z,99615.25
2018-03-18T11:18:34.515Z,99609.52
2018-03-18T11:21:00.820Z,99611.50
2018-03-18T11:23:27.181Z,99621.36
2018-03-18T11:25:53.594Z,99608.17
2018-03-18T11:28:19.905Z,99607.62
2018-03-18T11:30:47.054Z,99611.09
2018-03-18T11:33:14.126Z,99578.58
2018-03-18T11:35:40.492Z,99606.98
2018-03-18T11:38:06.854Z,99592.27
2018-03-18T11:40:33.970Z,99583.56
2018-03-18T11:43:00.356Z,99594.62
2018-03-18T11:45:26.664Z,99584.80
2018-03-18T11:47:53.788Z,99551.80
2018-03-18T11:50:20.479Z,99582.97
2018-03-18T11:52:46.960Z,99579.84
2018-03-18T11:55:13.309Z,99572.84
2018-03-18T11:57:39.863Z,99588.23
2018-03-18T12:00:07.037Z,99574.56
2018-03-18T12:02:33.331Z,99584.93
2018-03-18T12:04:59.623Z,99586.00
2018-03-18T12:07:25.948Z,99586.98
2018-03-18T12:09:52.255Z,99587.72
2018-03-18T12:12:25.612Z,99577.45
2018-03-18T12:14:51.958Z,99579.78
2018-03-18T12:17:18.378Z,99570.34
2018-03-18T12:19:44.812Z,99566.82
2018-03-18T12:22:11.176Z,99563.56
2018-03-18T12:24:37.493Z,99575.27
2018-03-18T12:27:04.544Z,99569.91
2018-03-18T12:29:31.685Z,99565.48
2018-03-18T12:31:58.026Z,99568.29
2018-03-18T12:34:25.182Z,99586.52
2018-03-18T12:36:51.593Z,99571.33
2018-03-18T12:39:18.015Z,99570.27
2018-03-18T12:41:44.339Z,99578.77
2018-03-18T12:44:10.677Z,99569.22
2018-03-18T12:46:37.868Z,99576.59
2018-03-18T12:49:04.942Z,99566.66
2018-03-18T12:51:31.318Z,99565.59
2018-03-18T12:53:57.690Z,99549.67
2018-03-18T12:56:24.010Z,99564.80
2018-03-18T12:58:51.076Z,99560.13
2018-03-18T13:01:17.409Z,99565.13
2018-03-18T13:03:43.752Z,99563.26
2018-03-18T13:06:10.096Z,99554.99
2018-03-18T13:08:36.453Z,99561.25
2018-03-18T13:11:02.806Z,99565.11
2018-03-18T13:13:29.853Z,99574.70
2018-03-18T13:15:56.973Z,99572.67
2018-03-18T13:18:23.302Z,99568.43
2018-03-18T13:20:49.664Z,99561.54
2018-03-18T13:23:16.758Z,99562.52
2018-03-18T13:25:49.976Z,99556.41
2018-03-18T13:28:16.339Z,99568.66
2018-03-18T13:30:43.424Z,99569.30
2018-03-18T13:33:09.720Z,99560.41
2018-03-18T13:35:36.821Z,99563.30
2018-03-18T13:38:03.177Z,99571.11
2018-03-18T13:40:29.527Z,99555.05
2018-03-18T13:42:56.619Z,99548.34
2018-03-18T13:45:22.972Z,99549.16
2018-03-18T13:47:49.298Z,99556.88
2018-03-18T13:50:15.591Z,99550.00
2018-03-18T13:52:41.921Z,99548.26
2018-03-18T13:55:08.943Z,99549.23
2018-03-18T13:57:35.330Z,99558.59
2018-03-18T14:00:01.885Z,99549.03
2018-03-18T14:02:28.215Z,99535.52
2018-03-18T14:04:55.473Z,99553.69
2018-03-18T14:07:21.770Z,99564.73
2018-03-18T14:09:48.082Z,99555.91
2018-03-18T14:12:15.167Z,99552.27
2018-03-18T14:14:41.473Z,99548.62
2018-03-18T14:17:07.841Z,99552.36
2018-03-18T14:19:35.535Z,99564.91
2018-03-18T14:22:02.573Z,99558.11
2018-03-18T14:24:28.907Z,99559.53
2018-03-18T14:26:55.264Z,99551.42
2018-03-18T14:29:22.464Z,99543.57
2018-03-18T14:31:48.955Z,99555.80
2018-03-18T14:34:16.033Z,99542.14
2018-03-18T14:36:42.334Z,99548.95
2018-03-18T14:39:08.708Z,99544.19
2018-03-18T14:41:35.032Z,99536.37
2018-03-18T14:44:01.332Z,99541.25
2018-03-18T14:46:27.665Z,99525.66
2018-03-18T14:48:53.974Z,99520.02
2018-03-18T14:51:21.033Z,99522.80
2018-03-18T14:53:48.127Z,99527.82
2018-03-18T14:56:14.473Z,99517.81
2018-03-18T14:58:40.902Z,99543.48
2018-03-18T15:01:07.943Z,99520.21
2018-03-18T15:03:34.271Z,99527.91
2018-03-18T15:06:00.646Z,99532.55
2018-03-18T15:08:27.725Z,99538.42
2018-03-18T15:10:54.097Z,99538.48
2018-03-18T15:13:21.173Z,99533.93
2018-03-18T15:15:48.286Z,99542.17
2018-03-18T15:18:14.651Z,99536.56
2018-03-18T15:20:41.698Z,99524.59
2018-03-18T15:23:08.010Z,99528.34
2018-03-18T15:25:35.348Z,99530.06
2018-03-18T15:28:02.443Z,99534.19
2018-03-18T15:30:29.515Z,99537.22
2018-03-18T15:32:55.873Z,99548.34
2018-03-18T15:35:22.190Z,99548.73
2018-03-18T15:37:48.572Z,99544.90
2018-03-18T15:40:14.969Z,99540.48
2018-03-18T15:42:41.381Z,99543.67
2018-03-18T15:45:08.160Z,99531.90
2018-03-18T15:47:35.986Z,99544.42
2018-03-18T15:50:02.346Z,99544.53
2018-03-18T15:52:28.814Z,99552.30
2018-03-18T15:54:55.152Z,99557.04
2018-03-18T15:57:21.512Z,99540.57
2018-03-18T15:59:47.916Z,99559.91
2018-03-18T16:02:14.304Z,99550.06
2018-03-18T16:04:40.633Z,99553.17
2018-03-18T16:07:07.040Z,99558.11
2018-03-18T16:09:33.526Z,99563.29
2018-03-18T16:11:59.917Z,99562.41
2018-03-18T16:14:26.238Z,99565.35
2018-03-18T16:16:52.647Z,99561.37
2018-03-18T16:19:20.637Z,99571.59
2018-03-18T16:21:47.661Z,99563.77
2018-03-18T16:24:13.961Z,99570.38
2018-03-18T16:26:40.295Z,99564.27
2018-03-18T16:29:25.164Z,99571.75
2018-03-18T16:31:51.478Z,99576.11
2018-03-18T16:34:18.579Z,99580.25
2018-03-18T16:36:44.910Z,99569.81
2018-03-18T16:39:12.133Z,99575.89
2018-03-18T16:41:38.513Z,99586.27
2018-03-18T16:44:04.900Z,99590.65
2018-03-18T16:46:31.270Z,99589.69
2018-03-18T16:48:58.469Z,99587.77
2018-03-18T16:51:24.731Z,99585.83
2018-03-18T16:53:51.162Z,99588.58
2018-03-18T16:56:17.495Z,99589.50
2018-03-18T16:58:43.814Z,99598.02
2018-03-18T17:01:10.128Z,99597.69
2018-03-18T17:03:38.518Z,99594.83
2018-03-18T17:06:05.608Z,99598.90
2018-03-18T17:08:32.804Z,99598.86
2018-03-18T17:10:59.568Z,99603.16
2018-03-18T17:13:26.017Z,99608.96
2018-03-18T17:15:53.722Z,99546.43
2018-03-18T17:18:20.015Z,99621.38
2018-03-18T17:20:47.085Z,99624.08
2018-03-18T17:23:13.437Z,99623.09
2018-03-18T17:25:39.800Z,99622.59
2018-03-18T17:28:06.079Z,99632.06
2018-03-18T17:30:33.132Z,99639.52
2018-03-18T17:32:59.440Z,99645.81
2018-03-18T17:35:26.593Z,99639.72
2018-03-18T17:37:53.678Z,99648.91
2018-03-18T17:40:20.026Z,99655.23
2018-03-18T17:42:47.499Z,99652.78
2018-03-18T17:48:48.254Z,99654.11
2018-03-18T17:51:33.373Z,99664.74
2018-03-18T17:54:18.354Z,99667.31
2018-03-18T17:56:44.675Z,99672.45
2018-03-18T17:59:11.781Z,99679.20
2018-03-18T18:01:38.154Z,99680.88
2018-03-18T18:04:05.294Z,99674.69
2018-03-18T18:06:32.513Z,99679.46
2018-03-18T18:08:58.866Z,99681.84
2018-03-18T18:11:25.199Z,99682.97
2018-03-18T18:13:52.201Z,99692.20
2018-03-18T18:16:18.547Z,99681.98
2018-03-18T18:18:44.901Z,99677.81
2018-03-18T18:21:11.446Z,99678.17
2018-03-18T18:23:37.774Z,99677.61
2018-03-18T18:26:04.106Z,99681.80
2018-03-18T18:28:30.674Z,99684.92
2018-03-18T18:30:57.871Z,99685.84
2018-03-18T18:33:24.953Z,99688.64
2018-03-18T18:35:52.066Z,99688.81
2018-03-18T18:38:18.464Z,99692.29
2018-03-18T18:40:44.879Z,99694.41
2018-03-18T18:43:12.103Z,99698.70
2018-03-18T18:45:38.497Z,99656.16
2018-03-18T18:48:04.922Z,99707.28
2018-03-18T18:50:31.381Z,99699.19
2018-03-18T18:52:59.776Z,99694.92
2018-03-18T18:55:26.166Z,99702.78
2018-03-18T18:57:52.526Z,99707.84
2018-03-18T19:00:18.874Z,99697.59
2018-03-18T19:02:45.254Z,99707.58
2018-03-18T19:05:11.539Z,99702.86
2018-03-18T19:07:37.854Z,99700.00
2018-03-18T19:10:05.267Z,99701.28
2018-03-18T19:12:32.705Z,99702.45
2018-03-18T19:14:59.828Z,99699.74
2018-03-18T19:17:26.161Z,99703.08
2018-03-18T19:19:52.486Z,99701.12
2018-03-18T19:22:18.823Z,99698.45
2018-03-18T19:24:45.161Z,99702.19
2018-03-18T19:27:11.476Z,99698.87
2018-03-18T19:29:37.829Z,99694.85
2018-03-18T19:32:04.115Z,99699.25
2018-03-18T19:34:30.500Z,99694.77
2018-03-18T19:36:58.531Z,99698.38
2018-03-18T19:39:24.845Z,99696.12
2018-03-18T19:41:51.178Z,99696.91
2018-03-18T19:44:17.473Z,99694.95
2018-03-18T19:46:44.557Z,99699.48
2018-03-18T19:49:11.110Z,99701.67
2018-03-18T19:51:37.461Z,99673.72
2018-03-18T19:54:03.794Z,99694.53
2018-03-18T19:56:30.188Z,99697.17
2018-03-18T19:58:56.484Z,99693.80
2018-03-18T20:01:23.570Z,99685.66
2018-03-18T20:03:50.017Z,99691.47
2018-03-18T20:06:17.081Z,99684.82
2018-03-18T20:08:43.420Z,99686.28
2018-03-18T20:11:09.735Z,99685.44
2018-03-18T20:13:36.051Z,99687.02
2018-03-18T20:16:02.365Z,99687.81
2018-03-18T20:18:28.843Z,99683.52
2018-03-18T20:20:55.276Z,99696.28
2018-03-18T20:23:21.569Z,99684.48
2018-03-18T20:25:48.723Z,99688.73
2018-03-18T20:28:15.051Z,99691.10
2018-03-18T20:30:41.489Z,99693.80
2018-03-18T20:33:07.842Z,99690.33
2018-03-18T20:35:34.198Z,99694.18
2018-03-18T20:38:00.500Z,99691.53
2018-03-18T20:40:26.848Z,99687.39
2018-03-18T20:43:00.125Z,99690.58
2018-03-18T20:45:26.457Z,99688.43
2018-03-18T20:47:52.805Z,99694.06
2018-03-18T20:50:19.138Z,99688.36
2018-03-18T20:52:45.498Z,99688.91
2018-03-18T20:55:12.578Z,99689.72
2018-03-18T20:57:38.905Z,99683.17
2018-03-18T21:00:05.273Z,99677.59
2018-03-18T21:02:31.639Z,99676.08
2018-03-18T21:04:58.672Z,99687.08
2018-03-18T21:07:24.990Z,99687.48
2018-03-18T21:09:51.307Z,99686.64
2018-03-18T21:12:17.610Z,99689.83
2018-03-18T21:14:43.884Z,99691.11
2018-03-18T21:17:10.221Z,99687.19
2018-03-18T21:19:36.676Z,99690.03
2018-03-18T21:22:03.778Z,99691.08
2018-03-18T21:24:31.131Z,99691.91
2018-03-18T21:26:57.458Z,99688.77
2018-03-18T21:29:23.838Z,99689.23
2018-03-18T21:31:50.127Z,99689.05
2018-03-18T21:34:16.485Z,99700.63
2018-03-18T21:36:42.807Z,99688.07
2018-03-18T21:39:09.137Z,99692.48
2018-03-18T21:41:36.070Z,99693.66
2018-03-18T21:44:02.388Z,99693.15
2018-03-18T21:46:28.687Z,99687.59
2018-03-18T21:48:54.994Z,99668.58
2018-03-18T21:51:21.331Z,99683.47
2018-03-18T21:53:47.636Z,99692.03
2018-03-18T21:56:13.947Z,99682.96
2018-03-18T21:58:40.216Z,99687.28
2018-03-18T22:01:06.666Z,99675.59
2018-03-18T22:03:33.668Z,99680.81
2018-03-18T22:06:00.032Z,99684.26
2018-03-18T22:08:26.331Z,99681.91
2018-03-18T22:10:52.611Z,99678.81
2018-03-18T22:13:18.940Z,99676.41
2018-03-18T22:15:46.040Z,99677.47
2018-03-18T22:18:12.355Z,99678.66
2018-03-18T22:20:38.663Z,99676.92
2018-03-18T22:23:04.926Z,99674.59
2018-03-18T22:25:31.251Z,99679.64
2018-03-18T22:27:57.655Z,99680.55
2018-03-18T22:30:23.937Z,99680.87
2018-03-18T22:32:50.223Z,99679.92
2018-03-18T22:35:16.526Z,99677.11
2018-03-18T22:37:43.602Z,99679.92
2018-03-18T22:40:09.992Z,99677.98
2018-03-18T22:42:36.246Z,99684.07
2018-03-18T22:45:03.288Z,99689.27
2018-03-18T22:47:30.324Z,99681.99
2018-03-18T22:49:56.620Z,99681.78
2018-03-18T22:52:22.950Z,99676.48
2018-03-18T22:54:49.310Z,99686.06
2018-03-18T22:57:15.616Z,99682.63
2018-03-18T22:59:41.914Z,99683.98
2018-03-18T23:02:08.255Z,99684.59
2018-03-18T23:04:34.579Z,99687.05
2018-03-18T23:07:00.877Z,99678.91
2018-03-18T23:09:27.954Z,99673.20
2018-03-18T23:11:54.310Z,99679.36
2018-03-18T23:14:20.617Z,99678.92
2018-03-18T23:16:46.953Z,99675.97
2018-03-18T23:19:13.271Z,99667.81
2018-03-18T23:21:39.611Z,99673.59
2018-03-18T23:24:05.949Z,99674.25
2018-03-18T23:26:32.315Z,99678.03
2018-03-18T23:28:58.605Z,99668.56
2018-03-18T23:31:24.896Z,99669.71
2018-03-18T23:33:51.194Z,99668.38
2018-03-18T23:36:17.533Z,99666.41
2018-03-18T23:38:43.887Z,99666.16
2018-03-18T23:41:10.294Z,99670.18
2018-03-18T23:43:37.438Z,99665.17
2018-03-18T23:46:03.740Z,99662.52
2018-03-18T23:48:30.048Z,99657.08
2018-03-18T23:50:57.078Z,99663.96
2018-03-18T23:53:23.384Z,99659.16
2018-03-18T23:55:49.674Z,99662.36
2018-03-18T23:58:15.996Z,99660.45
